sensor_id;sensor_type;location;lat;lon;timestamp;pressure;altitude;pressure_sealevel;temperature
18219;BMP180;9234;49.344;11.120;2023-05-16T00:02:06;97110.00;;;11.20
18219;BMP180;9234;49.344;11.120;2023-05-16T00:04:36;97096.00;;;11.20
18219;BMP180;9234;49.344;11.120;2023-05-16T00:07:04;97094.00;;;11.20
18219;BMP180;9234;49.344;11.120;2023-05-16T00:09:33;97094.00;;;11.20
18219;BMP180;9234;49.344;11.120;2023-05-16T00:12:01;97099.00;;;11.20
18219;BMP180;9234;49.344;11.120;2023-05-16T00:14:29;97089.00;;;11.20
18219;BMP180;9234;49.344;11.120;2023-05-16T00:16:57;97092.00;;;11.10
18219;BMP180;9234;49.344;11.120;2023-05-16T00:19:27;97084.00;;;11.10
18219;BMP180;9234;49.344;11.120;2023-05-16T00:21:57;97099.00;;;11.10
18219;BMP180;9234;49.344;11.120;2023-05-16T00:24:25;97096.00;;;11.00
18219;BMP180;9234;49.344;11.120;2023-05-16T00:26:53;97089.00;;;10.90
18219;BMP180;9234;49.344;11.120;2023-05-16T00:29:21;97097.00;;;10.90
18219;BMP180;9234;49.344;11.120;2023-05-16T00:31:50;97107.00;;;10.90
18219;BMP180;9234;49.344;11.120;2023-05-16T00:34:18;97098.00;;;10.80
18219;BMP180;9234;49.344;11.120;2023-05-16T00:36:50;97097.00;;;10.80
18219;BMP180;9234;49.344;11.120;2023-05-16T00:39:20;97087.00;;;10.70
18219;BMP180;9234;49.344;11.120;2023-05-16T00:41:48;97097.00;;;10.70
18219;BMP180;9234;49.344;11.120;2023-05-16T00:44:16;97090.00;;;10.70
18219;BMP180;9234;49.344;11.120;2023-05-16T00:46:45;97097.00;;;10.60
18219;BMP180;9234;49.344;11.120;2023-05-16T00:49:13;97100.00;;;10.60
18219;BMP180;9234;49.344;11.120;2023-05-16T00:51:42;97093.00;;;10.50
18219;BMP180;9234;49.344;11.120;2023-05-16T00:54:11;97094.00;;;10.50
18219;BMP180;9234;49.344;11.120;2023-05-16T00:56:40;97090.00;;;10.40
18219;BMP180;9234;49.344;11.120;2023-05-16T00:59:09;97099.00;;;10.40
18219;BMP180;9234;49.344;11.120;2023-05-16T01:01:40;97088.00;;;10.40
18219;BMP180;9234;49.344;11.120;2023-05-16T01:04:08;97099.00;;;10.30
18219;BMP180;9234;49.344;11.120;2023-05-16T01:06:36;97107.00;;;10.30
18219;BMP180;9234;49.344;11.120;2023-05-16T01:09:05;97102.00;;;10.20
18219;BMP180;9234;49.344;11.120;2023-05-16T01:11:47;97095.00;;;10.20
18219;BMP180;9234;49.344;11.120;2023-05-16T01:14:34;97112.00;;;10.20
18219;BMP180;9234;49.344;11.120;2023-05-16T01:17:14;97108.00;;;10.10
18219;BMP180;9234;49.344;11.120;2023-05-16T01:20:03;97091.00;;;10.10
18219;BMP180;9234;49.344;11.120;2023-05-16T01:22:54;97106.00;;;10.10
18219;BMP180;9234;49.344;11.120;2023-05-16T01:25:42;97104.00;;;10.10
18219;BMP180;9234;49.344;11.120;2023-05-16T01:28:15;97088.00;;;10.10
18219;BMP180;9234;49.344;11.120;2023-05-16T01:30:44;97086.00;;;10.00
18219;BMP180;9234;49.344;11.120;2023-05-16T01:33:12;97085.00;;;10.00
18219;BMP180;9234;49.344;11.120;2023-05-16T01:35:52;97097.00;;;10.00
18219;BMP180;9234;49.344;11.120;2023-05-16T01:38:26;97097.00;;;10.00
18219;BMP180;9234;49.344;11.120;2023-05-16T01:41:02;97096.00;;;10.00
18219;BMP180;9234;49.344;11.120;2023-05-16T01:43:41;97098.00;;;10.00
18219;BMP180;9234;49.344;11.120;2023-05-16T01:46:15;97097.00;;;10.00
18219;BMP180;9234;49.344;11.120;2023-05-16T01:48:52;97094.00;;;10.00
18219;BMP180;9234;49.344;11.120;2023-05-16T01:51:27;97091.00;;;10.00
18219;BMP180;9234;49.344;11.120;2023-05-16T01:54:04;97101.00;;;10.00
18219;BMP180;9234;49.344;11.120;2023-05-16T01:56:36;97089.00;;;10.00
18219;BMP180;9234;49.344;11.120;2023-05-16T01:59:07;97090.00;;;9.90
18219;BMP180;9234;49.344;11.120;2023-05-16T02:01:37;97095.00;;;9.90
18219;BMP180;9234;49.344;11.120;2023-05-16T02:04:05;97092.00;;;9.90
18219;BMP180;9234;49.344;11.120;2023-05-16T02:06:34;97109.00;;;9.90
18219;BMP180;9234;49.344;11.120;2023-05-16T02:09:03;97106.00;;;9.90
18219;BMP180;9234;49.344;11.120;2023-05-16T02:11:31;97106.00;;;10.00
18219;BMP180;9234;49.344;11.120;2023-05-16T02:13:59;97092.00;;;10.00
18219;BMP180;9234;49.344;11.120;2023-05-16T02:16:29;97103.00;;;10.00
18219;BMP180;9234;49.344;11.120;2023-05-16T02:18:58;97109.00;;;10.00
18219;BMP180;9234;49.344;11.120;2023-05-16T02:21:26;97105.00;;;10.00
18219;BMP180;9234;49.344;11.120;2023-05-16T02:23:54;97108.00;;;10.00
18219;BMP180;9234;49.344;11.120;2023-05-16T02:26:22;97116.00;;;10.10
18219;BMP180;9234;49.344;11.120;2023-05-16T02:28:50;97101.00;;;10.00
18219;BMP180;9234;49.344;11.120;2023-05-16T02:31:30;97099.00;;;10.00
18219;BMP180;9234;49.344;11.120;2023-05-16T02:33:59;97099.00;;;10.00
18219;BMP180;9234;49.344;11.120;2023-05-16T02:36:28;97109.00;;;10.00
18219;BMP180;9234;49.344;11.120;2023-05-16T02:38:56;97104.00;;;9.90
18219;BMP180;9234;49.344;11.120;2023-05-16T02:41:24;97096.00;;;9.90
18219;BMP180;9234;49.344;11.120;2023-05-16T02:43:52;97105.00;;;9.90
18219;BMP180;9234;49.344;11.120;2023-05-16T02:46:23;97114.00;;;9.80
18219;BMP180;9234;49.344;11.120;2023-05-16T02:48:53;97107.00;;;9.80
18219;BMP180;9234;49.344;11.120;2023-05-16T02:51:24;97112.00;;;9.80
18219;BMP180;9234;49.344;11.120;2023-05-16T02:53:56;97118.00;;;9.80
18219;BMP180;9234;49.344;11.120;2023-05-16T02:56:25;97111.00;;;9.80
18219;BMP180;9234;49.344;11.120;2023-05-16T02:58:54;97108.00;;;9.80
18219;BMP180;9234;49.344;11.120;2023-05-16T03:01:22;97112.00;;;9.80
18219;BMP180;9234;49.344;11.120;2023-05-16T03:03:52;97114.00;;;9.90
18219;BMP180;9234;49.344;11.120;2023-05-16T03:06:22;97109.00;;;9.90
18219;BMP180;9234;49.344;11.120;2023-05-16T03:08:51;97119.00;;;9.90
18219;BMP180;9234;49.344;11.120;2023-05-16T03:11:19;97119.00;;;10.00
18219;BMP180;9234;49.344;11.120;2023-05-16T03:13:50;97113.00;;;10.00
18219;BMP180;9234;49.344;11.120;2023-05-16T03:16:18;97110.00;;;10.00
18219;BMP180;9234;49.344;11.120;2023-05-16T03:18:46;97114.00;;;10.10
18219;BMP180;9234;49.344;11.120;2023-05-16T03:21:15;97102.00;;;10.10
18219;BMP180;9234;49.344;11.120;2023-05-16T03:23:44;97107.00;;;10.10
18219;BMP180;9234;49.344;11.120;2023-05-16T03:26:12;97110.00;;;10.20
18219;BMP180;9234;49.344;11.120;2023-05-16T03:28:40;97111.00;;;10.20
18219;BMP180;9234;49.344;11.120;2023-05-16T03:31:08;97109.00;;;10.20
18219;BMP180;9234;49.344;11.120;2023-05-16T03:33:37;97099.00;;;10.20
18219;BMP180;9234;49.344;11.120;2023-05-16T03:36:06;97117.00;;;10.20
18219;BMP180;9234;49.344;11.120;2023-05-16T03:38:36;97103.00;;;10.20
18219;BMP180;9234;49.344;11.120;2023-05-16T03:41:04;97103.00;;;10.10
18219;BMP180;9234;49.344;11.120;2023-05-16T03:43:32;97102.00;;;10.10
18219;BMP180;9234;49.344;11.120;2023-05-16T03:46:00;97102.00;;;10.20
18219;BMP180;9234;49.344;11.120;2023-05-16T03:48:29;97115.00;;;10.20
18219;BMP180;9234;49.344;11.120;2023-05-16T03:50:57;97106.00;;;10.20
18219;BMP180;9234;49.344;11.120;2023-05-16T03:53:25;97113.00;;;10.20
18219;BMP180;9234;49.344;11.120;2023-05-16T03:55:54;97125.00;;;10.30
18219;BMP180;9234;49.344;11.120;2023-05-16T03:58:23;97119.00;;;10.30
18219;BMP180;9234;49.344;11.120;2023-05-16T04:00:51;97115.00;;;10.40
18219;BMP180;9234;49.344;11.120;2023-05-16T04:03:19;97115.00;;;10.40
18219;BMP180;9234;49.344;11.120;2023-05-16T04:05:54;97127.00;;;10.40
18219;BMP180;9234;49.344;11.120;2023-05-16T04:08:23;97118.00;;;10.50
18219;BMP180;9234;49.344;11.120;2023-05-16T04:10:51;97137.00;;;10.60
18219;BMP180;9234;49.344;11.120;2023-05-16T04:13:21;97116.00;;;10.60
18219;BMP180;9234;49.344;11.120;2023-05-16T04:15:49;97120.00;;;10.60
18219;BMP180;9234;49.344;11.120;2023-05-16T04:18:17;97132.00;;;10.70
18219;BMP180;9234;49.344;11.120;2023-05-16T04:20:45;97123.00;;;10.70
18219;BMP180;9234;49.344;11.120;2023-05-16T04:23:14;97118.00;;;10.80
18219;BMP180;9234;49.344;11.120;2023-05-16T04:25:42;97122.00;;;10.80
18219;BMP180;9234;49.344;11.120;2023-05-16T04:28:10;97122.00;;;10.90
18219;BMP180;9234;49.344;11.120;2023-05-16T04:30:40;97124.00;;;10.90
18219;BMP180;9234;49.344;11.120;2023-05-16T04:33:08;97126.00;;;10.90
18219;BMP180;9234;49.344;11.120;2023-05-16T04:35:37;97120.00;;;11.00
18219;BMP180;9234;49.344;11.120;2023-05-16T04:38:06;97127.00;;;11.00
18219;BMP180;9234;49.344;11.120;2023-05-16T04:40:34;97128.00;;;11.10
18219;BMP180;9234;49.344;11.120;2023-05-16T04:43:02;97127.00;;;11.10
18219;BMP180;9234;49.344;11.120;2023-05-16T04:45:30;97130.00;;;11.20
18219;BMP180;9234;49.344;11.120;2023-05-16T04:48:02;97134.00;;;11.20
18219;BMP180;9234;49.344;11.120;2023-05-16T04:50:31;97140.00;;;11.30
18219;BMP180;9234;49.344;11.120;2023-05-16T04:52:59;97135.00;;;11.40
18219;BMP180;9234;49.344;11.120;2023-05-16T04:55:27;97133.00;;;11.40
18219;BMP180;9234;49.344;11.120;2023-05-16T04:57:56;97140.00;;;11.50
18219;BMP180;9234;49.344;11.120;2023-05-16T05:00:24;97140.00;;;11.60
18219;BMP180;9234;49.344;11.120;2023-05-16T05:02:53;97136.00;;;11.60
18219;BMP180;9234;49.344;11.120;2023-05-16T05:05:23;97134.00;;;11.70
18219;BMP180;9234;49.344;11.120;2023-05-16T05:07:51;97143.00;;;11.80
18219;BMP180;9234;49.344;11.120;2023-05-16T05:10:20;97149.00;;;11.90
18219;BMP180;9234;49.344;11.120;2023-05-16T05:12:48;97144.00;;;12.00
18219;BMP180;9234;49.344;11.120;2023-05-16T05:15:16;97144.00;;;12.00
18219;BMP180;9234;49.344;11.120;2023-05-16T05:17:45;97160.00;;;12.10
18219;BMP180;9234;49.344;11.120;2023-05-16T05:20:13;97153.00;;;12.20
18219;BMP180;9234;49.344;11.120;2023-05-16T05:22:43;97141.00;;;12.20
18219;BMP180;9234;49.344;11.120;2023-05-16T05:25:11;97162.00;;;12.30
18219;BMP180;9234;49.344;11.120;2023-05-16T05:27:40;97143.00;;;12.30
18219;BMP180;9234;49.344;11.120;2023-05-16T05:30:09;97144.00;;;12.40
18219;BMP180;9234;49.344;11.120;2023-05-16T05:32:37;97153.00;;;12.50
18219;BMP180;9234;49.344;11.120;2023-05-16T05:35:06;97156.00;;;12.60
18219;BMP180;9234;49.344;11.120;2023-05-16T05:37:34;97155.00;;;12.70
18219;BMP180;9234;49.344;11.120;2023-05-16T05:40:06;97154.00;;;12.80
18219;BMP180;9234;49.344;11.120;2023-05-16T05:42:34;97159.00;;;12.90
18219;BMP180;9234;49.344;11.120;2023-05-16T05:45:03;97165.00;;;12.90
18219;BMP180;9234;49.344;11.120;2023-05-16T05:47:32;97159.00;;;13.00
18219;BMP180;9234;49.344;11.120;2023-05-16T05:50:02;97155.00;;;13.10
18219;BMP180;9234;49.344;11.120;2023-05-16T05:52:30;97156.00;;;13.30
18219;BMP180;9234;49.344;11.120;2023-05-16T05:54:59;97158.00;;;13.40
18219;BMP180;9234;49.344;11.120;2023-05-16T05:57:28;97153.00;;;13.50
18219;BMP180;9234;49.344;11.120;2023-05-16T05:59:56;97153.00;;;13.50
18219;BMP180;9234;49.344;11.120;2023-05-16T06:02:25;97164.00;;;13.70
18219;BMP180;9234;49.344;11.120;2023-05-16T06:04:53;97155.00;;;13.70
18219;BMP180;9234;49.344;11.120;2023-05-16T06:07:22;97168.00;;;13.80
18219;BMP180;9234;49.344;11.120;2023-05-16T06:09:50;97161.00;;;13.90
18219;BMP180;9234;49.344;11.120;2023-05-16T06:12:18;97158.00;;;14.00
18219;BMP180;9234;49.344;11.120;2023-05-16T06:14:47;97152.00;;;14.10
18219;BMP180;9234;49.344;11.120;2023-05-16T06:17:16;97156.00;;;14.20
18219;BMP180;9234;49.344;11.120;2023-05-16T06:19:44;97156.00;;;14.30
18219;BMP180;9234;49.344;11.120;2023-05-16T06:22:12;97159.00;;;14.40
18219;BMP180;9234;49.344;11.120;2023-05-16T06:24:41;97165.00;;;14.50
18219;BMP180;9234;49.344;11.120;2023-05-16T06:27:09;97156.00;;;14.50
18219;BMP180;9234;49.344;11.120;2023-05-16T06:29:37;97150.00;;;14.60
18219;BMP180;9234;49.344;11.120;2023-05-16T06:32:07;97155.00;;;14.70
18219;BMP180;9234;49.344;11.120;2023-05-16T06:34:39;97165.00;;;14.80
18219;BMP180;9234;49.344;11.120;2023-05-16T06:37:10;97158.00;;;14.90
18219;BMP180;9234;49.344;11.120;2023-05-16T06:39:38;97164.00;;;15.00
18219;BMP180;9234;49.344;11.120;2023-05-16T06:42:06;97158.00;;;15.00
18219;BMP180;9234;49.344;11.120;2023-05-16T06:44:36;97153.00;;;15.10
18219;BMP180;9234;49.344;11.120;2023-05-16T06:47:06;97169.00;;;15.20
18219;BMP180;9234;49.344;11.120;2023-05-16T06:49:34;97153.00;;;15.30
18219;BMP180;9234;49.344;11.120;2023-05-16T06:52:03;97157.00;;;15.50
18219;BMP180;9234;49.344;11.120;2023-05-16T06:54:32;97167.00;;;15.60
18219;BMP180;9234;49.344;11.120;2023-05-16T06:57:01;97156.00;;;15.80
18219;BMP180;9234;49.344;11.120;2023-05-16T06:59:29;97147.00;;;16.00
18219;BMP180;9234;49.344;11.120;2023-05-16T07:01:58;97159.00;;;16.20
18219;BMP180;9234;49.344;11.120;2023-05-16T07:04:28;97160.00;;;16.40
18219;BMP180;9234;49.344;11.120;2023-05-16T07:06:56;97166.00;;;16.60
18219;BMP180;9234;49.344;11.120;2023-05-16T07:09:24;97175.00;;;16.60
18219;BMP180;9234;49.344;11.120;2023-05-16T07:11:53;97174.00;;;16.70
18219;BMP180;9234;49.344;11.120;2023-05-16T07:14:21;97165.00;;;16.80
18219;BMP180;9234;49.344;11.120;2023-05-16T07:16:49;97168.00;;;17.00
18219;BMP180;9234;49.344;11.120;2023-05-16T07:19:17;97159.00;;;17.10
18219;BMP180;9234;49.344;11.120;2023-05-16T07:21:47;97160.00;;;17.20
18219;BMP180;9234;49.344;11.120;2023-05-16T07:24:15;97173.00;;;17.20
18219;BMP180;9234;49.344;11.120;2023-05-16T07:26:43;97161.00;;;17.20
18219;BMP180;9234;49.344;11.120;2023-05-16T07:29:12;97168.00;;;17.30
18219;BMP180;9234;49.344;11.120;2023-05-16T07:31:40;97163.00;;;17.30
18219;BMP180;9234;49.344;11.120;2023-05-16T07:34:11;97168.00;;;17.30
18219;BMP180;9234;49.344;11.120;2023-05-16T07:36:42;97161.00;;;17.30
18219;BMP180;9234;49.344;11.120;2023-05-16T07:39:11;97158.00;;;17.30
18219;BMP180;9234;49.344;11.120;2023-05-16T07:41:40;97154.00;;;17.30
18219;BMP180;9234;49.344;11.120;2023-05-16T07:44:08;97160.00;;;17.30
18219;BMP180;9234;49.344;11.120;2023-05-16T07:46:36;97183.00;;;17.30
18219;BMP180;9234;49.344;11.120;2023-05-16T07:49:05;97180.00;;;17.30
18219;BMP180;9234;49.344;11.120;2023-05-16T07:51:33;97178.00;;;17.40
18219;BMP180;9234;49.344;11.120;2023-05-16T07:54:02;97189.00;;;17.40
18219;BMP180;9234;49.344;11.120;2023-05-16T07:56:32;97171.00;;;17.50
18219;BMP180;9234;49.344;11.120;2023-05-16T07:59:00;97172.00;;;17.60
18219;BMP180;9234;49.344;11.120;2023-05-16T08:01:29;97178.00;;;17.80
18219;BMP180;9234;49.344;11.120;2023-05-16T08:03:57;97164.00;;;18.00
18219;BMP180;9234;49.344;11.120;2023-05-16T08:06:25;97168.00;;;18.10
18219;BMP180;9234;49.344;11.120;2023-05-16T08:08:54;97181.00;;;18.20
18219;BMP180;9234;49.344;11.120;2023-05-16T08:11:22;97173.00;;;18.20
18219;BMP180;9234;49.344;11.120;2023-05-16T08:13:51;97179.00;;;18.20
18219;BMP180;9234;49.344;11.120;2023-05-16T08:16:20;97196.00;;;18.30
18219;BMP180;9234;49.344;11.120;2023-05-16T08:18:48;97183.00;;;18.40
18219;BMP180;9234;49.344;11.120;2023-05-16T08:21:16;97196.00;;;18.30
18219;BMP180;9234;49.344;11.120;2023-05-16T08:23:45;97194.00;;;18.40
18219;BMP180;9234;49.344;11.120;2023-05-16T08:26:13;97195.00;;;18.50
18219;BMP180;9234;49.344;11.120;2023-05-16T08:28:42;97202.00;;;18.60
18219;BMP180;9234;49.344;11.120;2023-05-16T08:31:11;97203.00;;;18.60
18219;BMP180;9234;49.344;11.120;2023-05-16T08:33:42;97201.00;;;18.70
18219;BMP180;9234;49.344;11.120;2023-05-16T08:36:10;97200.00;;;18.90
18219;BMP180;9234;49.344;11.120;2023-05-16T08:38:39;97200.00;;;19.00
18219;BMP180;9234;49.344;11.120;2023-05-16T08:41:07;97195.00;;;19.30
18219;BMP180;9234;49.344;11.120;2023-05-16T08:43:35;97191.00;;;19.50
18219;BMP180;9234;49.344;11.120;2023-05-16T08:46:05;97184.00;;;19.60
18219;BMP180;9234;49.344;11.120;2023-05-16T08:48:36;97168.00;;;19.70
18219;BMP180;9234;49.344;11.120;2023-05-16T08:51:07;97175.00;;;19.90
18219;BMP180;9234;49.344;11.120;2023-05-16T08:53:43;97169.00;;;19.90
18219;BMP180;9234;49.344;11.120;2023-05-16T08:56:13;97174.00;;;19.90
18219;BMP180;9234;49.344;11.120;2023-05-16T08:58:44;97173.00;;;20.10
18219;BMP180;9234;49.344;11.120;2023-05-16T09:01:12;97173.00;;;20.30
18219;BMP180;9234;49.344;11.120;2023-05-16T09:03:43;97172.00;;;20.50
18219;BMP180;9234;49.344;11.120;2023-05-16T09:06:11;97179.00;;;20.50
18219;BMP180;9234;49.344;11.120;2023-05-16T09:08:40;97182.00;;;20.60
18219;BMP180;9234;49.344;11.120;2023-05-16T09:11:09;97186.00;;;20.60
18219;BMP180;9234;49.344;11.120;2023-05-16T09:13:38;97180.00;;;20.60
18219;BMP180;9234;49.344;11.120;2023-05-16T09:16:12;97184.00;;;20.70
18219;BMP180;9234;49.344;11.120;2023-05-16T09:18:45;97191.00;;;20.70
18219;BMP180;9234;49.344;11.120;2023-05-16T09:21:14;97191.00;;;20.60
18219;BMP180;9234;49.344;11.120;2023-05-16T09:23:43;97194.00;;;20.60
18219;BMP180;9234;49.344;11.120;2023-05-16T09:26:12;97192.00;;;20.50
18219;BMP180;9234;49.344;11.120;2023-05-16T09:28:41;97195.00;;;20.50
18219;BMP180;9234;49.344;11.120;2023-05-16T09:31:21;97194.00;;;20.50
18219;BMP180;9234;49.344;11.120;2023-05-16T09:33:52;97196.00;;;20.50
18219;BMP180;9234;49.344;11.120;2023-05-16T09:36:21;97206.00;;;20.60
18219;BMP180;9234;49.344;11.120;2023-05-16T09:38:50;97221.00;;;20.60
18219;BMP180;9234;49.344;11.120;2023-05-16T09:41:20;97218.00;;;20.70
18219;BMP180;9234;49.344;11.120;2023-05-16T09:43:49;97203.00;;;20.80
18219;BMP180;9234;49.344;11.120;2023-05-16T09:46:17;97212.00;;;20.90
18219;BMP180;9234;49.344;11.120;2023-05-16T09:48:47;97211.00;;;20.80
18219;BMP180;9234;49.344;11.120;2023-05-16T09:51:21;97207.00;;;20.80
18219;BMP180;9234;49.344;11.120;2023-05-16T09:53:51;97213.00;;;20.70
18219;BMP180;9234;49.344;11.120;2023-05-16T09:56:19;97195.00;;;20.60
18219;BMP180;9234;49.344;11.120;2023-05-16T09:58:50;97200.00;;;20.50
18219;BMP180;9234;49.344;11.120;2023-05-16T10:01:19;97210.00;;;20.40
18219;BMP180;9234;49.344;11.120;2023-05-16T10:03:48;97203.00;;;20.30
18219;BMP180;9234;49.344;11.120;2023-05-16T10:06:19;97210.00;;;20.30
18219;BMP180;9234;49.344;11.120;2023-05-16T10:08:49;97204.00;;;20.30
18219;BMP180;9234;49.344;11.120;2023-05-16T10:11:18;97216.00;;;20.20
18219;BMP180;9234;49.344;11.120;2023-05-16T10:13:50;97203.00;;;20.20
18219;BMP180;9234;49.344;11.120;2023-05-16T10:16:21;97196.00;;;20.20
18219;BMP180;9234;49.344;11.120;2023-05-16T10:18:52;97204.00;;;20.30
18219;BMP180;9234;49.344;11.120;2023-05-16T10:21:24;97212.00;;;20.30
18219;BMP180;9234;49.344;11.120;2023-05-16T10:23:57;97195.00;;;20.30
18219;BMP180;9234;49.344;11.120;2023-05-16T10:26:26;97195.00;;;20.20
18219;BMP180;9234;49.344;11.120;2023-05-16T10:28:55;97205.00;;;20.30
18219;BMP180;9234;49.344;11.120;2023-05-16T10:31:27;97196.00;;;20.30
18219;BMP180;9234;49.344;11.120;2023-05-16T10:33:56;97197.00;;;20.30
18219;BMP180;9234;49.344;11.120;2023-05-16T10:36:26;97209.00;;;20.20
18219;BMP180;9234;49.344;11.120;2023-05-16T10:38:55;97193.00;;;20.20
18219;BMP180;9234;49.344;11.120;2023-05-16T10:41:24;97193.00;;;20.20
18219;BMP180;9234;49.344;11.120;2023-05-16T10:43:57;97207.00;;;20.30
18219;BMP180;9234;49.344;11.120;2023-05-16T10:46:27;97211.00;;;20.30
18219;BMP180;9234;49.344;11.120;2023-05-16T10:48:56;97213.00;;;20.40
18219;BMP180;9234;49.344;11.120;2023-05-16T10:51:37;97221.00;;;20.50
18219;BMP180;9234;49.344;11.120;2023-05-16T10:54:09;97211.00;;;20.50
18219;BMP180;9234;49.344;11.120;2023-05-16T10:56:39;97211.00;;;20.50
18219;BMP180;9234;49.344;11.120;2023-05-16T10:59:22;97207.00;;;20.70
18219;BMP180;9234;49.344;11.120;2023-05-16T11:01:54;97203.00;;;20.80
18219;BMP180;9234;49.344;11.120;2023-05-16T11:04:22;97206.00;;;20.90
18219;BMP180;9234;49.344;11.120;2023-05-16T11:06:53;97201.00;;;21.00
18219;BMP180;9234;49.344;11.120;2023-05-16T11:09:26;97202.00;;;21.40
18219;BMP180;9234;49.344;11.120;2023-05-16T11:12:00;97199.00;;;21.80
18219;BMP180;9234;49.344;11.120;2023-05-16T11:14:36;97199.00;;;21.90
18219;BMP180;9234;49.344;11.120;2023-05-16T11:17:10;97194.00;;;22.10
18219;BMP180;9234;49.344;11.120;2023-05-16T11:19:43;97187.00;;;22.20
18219;BMP180;9234;49.344;11.120;2023-05-16T11:22:24;97176.00;;;22.30
18219;BMP180;9234;49.344;11.120;2023-05-16T11:24:57;97195.00;;;22.40
18219;BMP180;9234;49.344;11.120;2023-05-16T11:27:28;97190.00;;;22.30
18219;BMP180;9234;49.344;11.120;2023-05-16T11:30:11;97197.00;;;22.30
18219;BMP180;9234;49.344;11.120;2023-05-16T11:32:42;97201.00;;;22.40
18219;BMP180;9234;49.344;11.120;2023-05-16T11:35:12;97209.00;;;22.60
18219;BMP180;9234;49.344;11.120;2023-05-16T11:37:44;97199.00;;;22.60
18219;BMP180;9234;49.344;11.120;2023-05-16T11:40:13;97205.00;;;22.70
18219;BMP180;9234;49.344;11.120;2023-05-16T11:42:45;97201.00;;;22.50
18219;BMP180;9234;49.344;11.120;2023-05-16T11:45:15;97197.00;;;22.20
18219;BMP180;9234;49.344;11.120;2023-05-16T11:47:45;97193.00;;;22.30
18219;BMP180;9234;49.344;11.120;2023-05-16T11:50:16;97195.00;;;22.20
18219;BMP180;9234;49.344;11.120;2023-05-16T11:52:49;97201.00;;;22.20
18219;BMP180;9234;49.344;11.120;2023-05-16T11:55:21;97201.00;;;22.00
18219;BMP180;9234;49.344;11.120;2023-05-16T11:58:07;97200.00;;;21.60
18219;BMP180;9234;49.344;11.120;2023-05-16T12:00:36;97202.00;;;21.50
18219;BMP180;9234;49.344;11.120;2023-05-16T12:03:04;97205.00;;;21.60
18219;BMP180;9234;49.344;11.120;2023-05-16T12:05:34;97222.00;;;21.80
18219;BMP180;9234;49.344;11.120;2023-05-16T12:08:04;97210.00;;;21.70
18219;BMP180;9234;49.344;11.120;2023-05-16T12:10:33;97207.00;;;21.80
18219;BMP180;9234;49.344;11.120;2023-05-16T12:13:02;97202.00;;;22.00
18219;BMP180;9234;49.344;11.120;2023-05-16T12:15:31;97207.00;;;22.00
18219;BMP180;9234;49.344;11.120;2023-05-16T12:18:00;97213.00;;;22.00
18219;BMP180;9234;49.344;11.120;2023-05-16T12:20:29;97205.00;;;21.90
18219;BMP180;9234;49.344;11.120;2023-05-16T12:22:57;97209.00;;;22.00
18219;BMP180;9234;49.344;11.120;2023-05-16T12:25:30;97211.00;;;22.10
18219;BMP180;9234;49.344;11.120;2023-05-16T12:28:00;97215.00;;;22.10
18219;BMP180;9234;49.344;11.120;2023-05-16T12:30:31;97213.00;;;22.00
18219;BMP180;9234;49.344;11.120;2023-05-16T12:33:01;97219.00;;;21.90
18219;BMP180;9234;49.344;11.120;2023-05-16T12:35:37;97225.00;;;21.90
18219;BMP180;9234;49.344;11.120;2023-05-16T12:38:07;97219.00;;;21.90
18219;BMP180;9234;49.344;11.120;2023-05-16T12:40:40;97228.00;;;22.00
18219;BMP180;9234;49.344;11.120;2023-05-16T12:43:12;97233.00;;;22.30
18219;BMP180;9234;49.344;11.120;2023-05-16T12:45:42;97229.00;;;22.50
18219;BMP180;9234;49.344;11.120;2023-05-16T12:48:16;97228.00;;;22.50
18219;BMP180;9234;49.344;11.120;2023-05-16T12:50:44;97219.00;;;22.60
18219;BMP180;9234;49.344;11.120;2023-05-16T12:53:15;97234.00;;;22.70
18219;BMP180;9234;49.344;11.120;2023-05-16T12:55:45;97245.00;;;23.20
18219;BMP180;9234;49.344;11.120;2023-05-16T12:58:13;97240.00;;;23.20
18219;BMP180;9234;49.344;11.120;2023-05-16T13:00:42;97243.00;;;23.00
18219;BMP180;9234;49.344;11.120;2023-05-16T13:03:10;97236.00;;;22.60
18219;BMP180;9234;49.344;11.120;2023-05-16T13:05:39;97254.00;;;22.20
18219;BMP180;9234;49.344;11.120;2023-05-16T13:08:07;97240.00;;;22.10
18219;BMP180;9234;49.344;11.120;2023-05-16T13:10:35;97242.00;;;22.50
18219;BMP180;9234;49.344;11.120;2023-05-16T13:13:05;97240.00;;;22.90
18219;BMP180;9234;49.344;11.120;2023-05-16T13:15:33;97233.00;;;22.80
18219;BMP180;9234;49.344;11.120;2023-05-16T13:18:02;97245.00;;;22.40
18219;BMP180;9234;49.344;11.120;2023-05-16T13:20:30;97253.00;;;22.10
18219;BMP180;9234;49.344;11.120;2023-05-16T13:22:58;97243.00;;;21.70
18219;BMP180;9234;49.344;11.120;2023-05-16T13:25:27;97244.00;;;21.40
18219;BMP180;9234;49.344;11.120;2023-05-16T13:27:55;97245.00;;;21.10
18219;BMP180;9234;49.344;11.120;2023-05-16T13:30:25;97243.00;;;20.90
18219;BMP180;9234;49.344;11.120;2023-05-16T13:32:54;97252.00;;;20.80
18219;BMP180;9234;49.344;11.120;2023-05-16T13:35:23;97242.00;;;20.60
18219;BMP180;9234;49.344;11.120;2023-05-16T13:37:52;97260.00;;;20.50
18219;BMP180;9234;49.344;11.120;2023-05-16T13:40:21;97259.00;;;20.40
18219;BMP180;9234;49.344;11.120;2023-05-16T13:42:49;97257.00;;;20.20
18219;BMP180;9234;49.344;11.120;2023-05-16T13:45:17;97248.00;;;20.10
18219;BMP180;9234;49.344;11.120;2023-05-16T13:47:47;97256.00;;;20.20
18219;BMP180;9234;49.344;11.120;2023-05-16T13:50:16;97248.00;;;20.30
18219;BMP180;9234;49.344;11.120;2023-05-16T13:52:44;97261.00;;;20.60
18219;BMP180;9234;49.344;11.120;2023-05-16T13:55:13;97246.00;;;21.00
18219;BMP180;9234;49.344;11.120;2023-05-16T13:57:42;97256.00;;;21.70
18219;BMP180;9234;49.344;11.120;2023-05-16T14:00:11;97263.00;;;22.30
18219;BMP180;9234;49.344;11.120;2023-05-16T14:02:42;97265.00;;;22.40
18219;BMP180;9234;49.344;11.120;2023-05-16T14:05:12;97271.00;;;22.10
18219;BMP180;9234;49.344;11.120;2023-05-16T14:07:41;97268.00;;;21.80
18219;BMP180;9234;49.344;11.120;2023-05-16T14:10:12;97290.00;;;21.50
18219;BMP180;9234;49.344;11.120;2023-05-16T14:12:41;97292.00;;;21.10
18219;BMP180;9234;49.344;11.120;2023-05-16T14:15:09;97284.00;;;20.80
18219;BMP180;9234;49.344;11.120;2023-05-16T14:17:38;97285.00;;;20.40
18219;BMP180;9234;49.344;11.120;2023-05-16T14:20:07;97285.00;;;20.10
18219;BMP180;9234;49.344;11.120;2023-05-16T14:22:37;97286.00;;;19.90
18219;BMP180;9234;49.344;11.120;2023-05-16T14:25:07;97301.00;;;19.80